sensor_id;sensor_type;location;lat;lon;timestamp;pressure;altitude;pressure_sealevel;temperature;humidity
63111;BME280;49201;53.426;10.300;2022-08-19T00:00:45;101247.91;;;20.25;89.52
63111;BME280;49201;53.426;10.300;2022-08-19T00:03:10;101249.69;;;20.23;89.54
63111;BME280;49201;53.426;10.300;2022-08-19T00:05:36;101244.47;;;20.24;89.46
63111;BME280;49201;53.426;10.300;2022-08-19T00:08:02;101247.91;;;20.25;89.68
63111;BME280;49201;53.426;10.300;2022-08-19T00:10:27;101245.38;;;20.22;89.81
63111;BME280;49201;53.426;10.300;2022-08-19T00:12:53;101241.88;;;20.21;89.48
63111;BME280;49201;53.426;10.300;2022-08-19T00:15:21;101246.22;;;20.21;89.80
63111;BME280;49201;53.426;10.300;2022-08-19T00:17:46;101251.41;;;20.21;89.71
63111;BME280;49201;53.426;10.300;2022-08-19T00:20:14;101248.81;;;20.22;89.59
63111;BME280;49201;53.426;10.300;2022-08-19T00:22:43;101240.16;;;20.22;89.44
63111;BME280;49201;53.426;10.300;2022-08-19T00:25:09;101231.47;;;20.21;90.18
63111;BME280;49201;53.426;10.300;2022-08-19T00:27:35;101222.84;;;20.19;90.02
63111;BME280;49201;53.426;10.300;2022-08-19T00:30:01;101222.78;;;20.22;89.88
63111;BME280;49201;53.426;10.300;2022-08-19T00:32:28;101215.09;;;20.16;90.32
63111;BME280;49201;53.426;10.300;2022-08-19T00:34:54;101209.91;;;20.13;90.19
63111;BME280;49201;53.426;10.300;2022-08-19T00:37:21;101213.41;;;20.11;89.54
63111;BME280;49201;53.426;10.300;2022-08-19T00:39:49;101208.19;;;20.12;89.49
63111;BME280;49201;53.426;10.300;2022-08-19T00:42:16;101209.09;;;20.11;89.38
63111;BME280;49201;53.426;10.300;2022-08-19T00:44:42;101209.09;;;20.07;89.34
63111;BME280;49201;53.426;10.300;2022-08-19T00:47:08;101211.69;;;20.10;88.56
63111;BME280;49201;53.426;10.300;2022-08-19T00:49:37;101208.28;;;20.08;88.94
63111;BME280;49201;53.426;10.300;2022-08-19T00:52:08;101212.59;;;20.06;88.71
63111;BME280;49201;53.426;10.300;2022-08-19T00:54:36;101215.19;;;20.04;88.60
63111;BME280;49201;53.426;10.300;2022-08-19T00:57:05;101217.88;;;20.01;88.44
63111;BME280;49201;53.426;10.300;2022-08-19T00:59:34;101225.59;;;20.04;88.81
63111;BME280;49201;53.426;10.300;2022-08-19T01:02:00;101225.59;;;20.04;88.59
63111;BME280;49201;53.426;10.300;2022-08-19T01:04:26;101228.25;;;20.01;88.85
63111;BME280;49201;53.426;10.300;2022-08-19T01:06:51;101223.06;;;20.01;88.72
63111;BME280;49201;53.426;10.300;2022-08-19T01:09:17;101219.56;;;20.02;88.91
63111;BME280;49201;53.426;10.300;2022-08-19T01:11:44;101217.88;;;20.00;89.45
63111;BME280;49201;53.426;10.300;2022-08-19T01:14:10;101217.88;;;20.00;89.46
63111;BME280;49201;53.426;10.300;2022-08-19T01:16:37;101218.69;;;20.03;89.53
63111;BME280;49201;53.426;10.300;2022-08-19T01:25:19;101191.88;;;20.00;89.56
63111;BME280;49201;53.426;10.300;2022-08-19T01:28:12;101186.69;;;19.98;90.46
63111;BME280;49201;53.426;10.300;2022-08-19T01:31:19;101184.09;;;19.98;90.24
63111;BME280;49201;53.426;10.300;2022-08-19T01:34:40;101182.38;;;19.96;90.23
63111;BME280;49201;53.426;10.300;2022-08-19T01:37:19;101189.38;;;19.94;90.35
63111;BME280;49201;53.426;10.300;2022-08-19T01:46:19;101181.59;;;19.91;90.05
63111;BME280;49201;53.426;10.300;2022-08-19T01:49:05;101172.91;;;19.90;90.20
63111;BME280;49201;53.426;10.300;2022-08-19T01:51:42;101161.72;;;19.87;90.48
63111;BME280;49201;53.426;10.300;2022-08-19T01:54:25;101167.78;;;19.86;90.52
63111;BME280;49201;53.426;10.300;2022-08-19T01:57:24;101175.59;;;19.84;90.52
63111;BME280;49201;53.426;10.300;2022-08-19T01:59:55;101179.09;;;19.85;90.08
63111;BME280;49201;53.426;10.300;2022-08-19T02:06:22;101184.31;;;19.82;90.07
63111;BME280;49201;53.426;10.300;2022-08-19T02:09:08;101178.25;;;19.81;90.40
63111;BME280;49201;53.426;10.300;2022-08-19T02:12:08;101179.09;;;19.82;90.70
63111;BME280;49201;53.426;10.300;2022-08-19T02:14:58;101173.03;;;19.81;90.86
63111;BME280;49201;53.426;10.300;2022-08-19T02:17:36;101167.88;;;19.80;90.83
63111;BME280;49201;53.426;10.300;2022-08-19T02:20:14;101165.25;;;19.81;90.88
63111;BME280;49201;53.426;10.300;2022-08-19T02:22:45;101160.09;;;19.80;90.55
63111;BME280;49201;53.426;10.300;2022-08-19T02:25:28;101162.69;;;19.80;90.81
63111;BME280;49201;53.426;10.300;2022-08-19T02:27:57;101166.13;;;19.79;91.12
63111;BME280;49201;53.426;10.300;2022-08-19T02:30:28;101167.03;;;19.76;91.42
63111;BME280;49201;53.426;10.300;2022-08-19T02:32:59;101174.81;;;19.78;91.20
63111;BME280;49201;53.426;10.300;2022-08-19T02:35:27;101173.13;;;19.77;91.21
63111;BME280;49201;53.426;10.300;2022-08-19T02:38:00;101175.69;;;19.78;91.35
63111;BME280;49201;53.426;10.300;2022-08-19T02:41:02;101166.16;;;19.77;91.37
63111;BME280;49201;53.426;10.300;2022-08-19T02:43:51;101161.00;;;19.76;90.76
63111;BME280;49201;53.426;10.300;2022-08-19T02:46:28;101160.16;;;19.74;91.66
63111;BME280;49201;53.426;10.300;2022-08-19T02:49:05;101150.63;;;19.73;91.02
63111;BME280;49201;53.426;10.300;2022-08-19T02:51:48;101152.41;;;19.69;91.59
63111;BME280;49201;53.426;10.300;2022-08-19T02:54:53;101159.34;;;19.67;92.06
63111;BME280;49201;53.426;10.300;2022-08-19T02:57:46;101161.09;;;19.68;91.90
63111;BME280;49201;53.426;10.300;2022-08-19T03:01:02;101163.66;;;19.70;92.03
63111;BME280;49201;53.426;10.300;2022-08-19T03:04:12;101167.16;;;19.67;91.88
63111;BME280;49201;53.426;10.300;2022-08-19T03:06:46;101168.91;;;19.68;92.17
63111;BME280;49201;53.426;10.300;2022-08-19T03:09:38;101160.25;;;19.66;92.54
63111;BME280;49201;53.426;10.300;2022-08-19T03:12:09;101146.41;;;19.66;92.25
63111;BME280;49201;53.426;10.300;2022-08-19T03:14:36;101145.53;;;19.67;92.25
63111;BME280;49201;53.426;10.300;2022-08-19T03:17:03;101145.53;;;19.67;92.23
63111;BME280;49201;53.426;10.300;2022-08-19T03:19:30;101145.53;;;19.65;92.53
63111;BME280;49201;53.426;10.300;2022-08-19T03:21:57;101142.94;;;19.65;92.56
63111;BME280;49201;53.426;10.300;2022-08-19T03:24:23;101151.63;;;19.66;92.52
63111;BME280;49201;53.426;10.300;2022-08-19T03:26:54;101158.53;;;19.65;92.38
63111;BME280;49201;53.426;10.300;2022-08-19T03:29:23;101173.25;;;19.66;92.45
63111;BME280;49201;53.426;10.300;2022-08-19T03:31:51;101170.63;;;19.68;92.17
63111;BME280;49201;53.426;10.300;2022-08-19T03:34:22;101162.84;;;19.68;92.35
63111;BME280;49201;53.426;10.300;2022-08-19T03:36:51;101170.63;;;19.68;92.53
63111;BME280;49201;53.426;10.300;2022-08-19T03:39:17;101174.13;;;19.67;92.94
63111;BME280;49201;53.426;10.300;2022-08-19T03:41:44;101174.06;;;19.70;92.44
63111;BME280;49201;53.426;10.300;2022-08-19T03:44:10;101187.91;;;19.73;92.40
63111;BME280;49201;53.426;10.300;2022-08-19T03:46:41;101190.44;;;19.75;92.47
63111;BME280;49201;53.426;10.300;2022-08-19T03:49:07;101187.03;;;19.73;92.52
63111;BME280;49201;53.426;10.300;2022-08-19T03:51:38;101195.72;;;19.72;92.75
63111;BME280;49201;53.426;10.300;2022-08-19T03:54:10;101209.53;;;19.74;92.25
63111;BME280;49201;53.426;10.300;2022-08-19T03:56:39;101203.50;;;19.72;92.42
63111;BME280;49201;53.426;10.300;2022-08-19T03:59:10;101203.50;;;19.73;92.55
63111;BME280;49201;53.426;10.300;2022-08-19T04:01:36;101210.44;;;19.71;92.71
63111;BME280;49201;53.426;10.300;2022-08-19T04:04:10;101219.09;;;19.72;92.29
63111;BME280;49201;53.426;10.300;2022-08-19T04:06:48;101213.03;;;19.71;93.06
63111;BME280;49201;53.426;10.300;2022-08-19T04:09:13;101216.50;;;19.72;92.54
63111;BME280;49201;53.426;10.300;2022-08-19T04:11:54;101215.59;;;19.74;93.00
63111;BME280;49201;53.426;10.300;2022-08-19T04:14:33;101223.41;;;19.74;92.77
63111;BME280;49201;53.426;10.300;2022-08-19T04:17:03;101213.84;;;19.75;92.47
63111;BME280;49201;53.426;10.300;2022-08-19T04:19:34;101220.78;;;19.76;92.66
63111;BME280;49201;53.426;10.300;2022-08-19T04:22:08;101228.59;;;19.74;92.62
63111;BME280;49201;53.426;10.300;2022-08-19T04:24:35;101223.41;;;19.74;92.71
63111;BME280;49201;53.426;10.300;2022-08-19T04:27:12;101220.75;;;19.77;92.63
63111;BME280;49201;53.426;10.300;2022-08-19T04:29:38;101225.09;;;19.77;92.51
63111;BME280;49201;53.426;10.300;2022-08-19T04:35:14;101227.69;;;19.78;92.84
63111;BME280;49201;53.426;10.300;2022-08-19T04:38:20;101231.13;;;19.79;92.71
63111;BME280;49201;53.426;10.300;2022-08-19T04:40:49;101226.81;;;19.79;92.42
63111;BME280;49201;53.426;10.300;2022-08-19T04:43:38;101225.03;;;19.81;92.46
63111;BME280;49201;53.426;10.300;2022-08-19T04:46:05;101230.22;;;19.83;92.72
63111;BME280;49201;53.426;10.300;2022-08-19T04:48:35;101228.50;;;19.80;93.04
63111;BME280;49201;53.426;10.300;2022-08-19T04:51:01;101225.06;;;19.80;92.78
63111;BME280;49201;53.426;10.300;2022-08-19T04:53:44;101233.72;;;19.80;92.73
63111;BME280;49201;53.426;10.300;2022-08-19T04:56:22;101243.28;;;19.78;93.12
63111;BME280;49201;53.426;10.300;2022-08-19T04:59:08;101244.13;;;19.79;92.99
63111;BME280;49201;53.426;10.300;2022-08-19T05:01:36;101237.19;;;19.81;92.88
63111;BME280;49201;53.426;10.300;2022-08-19T05:04:04;101237.19;;;19.79;92.72
63111;BME280;49201;53.426;10.300;2022-08-19T05:06:35;101232.91;;;19.77;93.18
63111;BME280;49201;53.426;10.300;2022-08-19T05:09:16;101250.28;;;19.73;93.62
63111;BME280;49201;53.426;10.300;2022-08-19T05:11:44;101248.50;;;19.74;93.39
63111;BME280;49201;53.426;10.300;2022-08-19T05:14:25;101249.38;;;19.76;93.24
63111;BME280;49201;53.426;10.300;2022-08-19T05:19:57;101248.53;;;19.72;93.76
63111;BME280;49201;53.426;10.300;2022-08-19T05:23:28;101263.28;;;19.73;93.51
63111;BME280;49201;53.426;10.300;2022-08-19T05:30:47;101265.88;;;19.73;94.33
63111;BME280;49201;53.426;10.300;2022-08-19T05:33:47;101258.94;;;19.72;94.27
63111;BME280;49201;53.426;10.300;2022-08-19T05:39:47;101258.97;;;19.71;94.32
63111;BME280;49201;53.426;10.300;2022-08-19T05:42:28;101263.31;;;19.69;94.73
63111;BME280;49201;53.426;10.300;2022-08-19T05:59:59;101252.97;;;19.64;95.99
63111;BME280;49201;53.426;10.300;2022-08-19T06:02:37;101251.22;;;19.66;95.81
63111;BME280;49201;53.426;10.300;2022-08-19T06:05:04;101254.69;;;19.67;95.77
63111;BME280;49201;53.426;10.300;2022-08-19T06:07:35;101254.69;;;19.64;96.43
63111;BME280;49201;53.426;10.300;2022-08-19T06:10:01;101260.78;;;19.64;96.47
63111;BME280;49201;53.426;10.300;2022-08-19T06:12:30;101249.59;;;19.58;96.55
63111;BME280;49201;53.426;10.300;2022-08-19T06:15:06;101247.81;;;19.61;96.84
63111;BME280;49201;53.426;10.300;2022-08-19T06:17:32;101250.38;;;19.63;97.03
63111;BME280;49201;53.426;10.300;2022-08-19T06:20:00;101247.78;;;19.63;96.63
63111;BME280;49201;53.426;10.300;2022-08-19T06:22:58;101243.50;;;19.60;96.86
63111;BME280;49201;53.426;10.300;2022-08-19T06:25:39;101238.22;;;19.66;96.45
63111;BME280;49201;53.426;10.300;2022-08-19T06:29:05;101239.91;;;19.70;96.52
63111;BME280;49201;53.426;10.300;2022-08-19T06:36:22;101237.19;;;19.81;95.28
63111;BME280;49201;53.426;10.300;2022-08-19T06:38:53;101237.13;;;19.84;95.04
63111;BME280;49201;53.426;10.300;2022-08-19T06:41:18;101237.91;;;19.92;94.79
63111;BME280;49201;53.426;10.300;2022-08-19T06:43:44;101237.78;;;20.01;94.27
63111;BME280;49201;53.426;10.300;2022-08-19T06:46:15;101239.50;;;20.03;94.05
63111;BME280;49201;53.426;10.300;2022-08-19T06:48:41;101236.88;;;20.06;93.45
63111;BME280;49201;53.426;10.300;2022-08-19T06:51:07;101234.97;;;20.20;92.97
63111;BME280;49201;53.426;10.300;2022-08-19T06:53:33;101227.06;;;20.28;92.55
63111;BME280;49201;53.426;10.300;2022-08-19T06:55:59;101217.41;;;20.36;91.95
63111;BME280;49201;53.426;10.300;2022-08-19T06:58:29;101222.47;;;20.45;90.98
63111;BME280;49201;53.426;10.300;2022-08-19T07:01:01;101220.66;;;20.50;91.05
63111;BME280;49201;53.426;10.300;2022-08-19T07:03:33;101225.94;;;20.45;91.40
63111;BME280;49201;53.426;10.300;2022-08-19T07:06:11;101218.19;;;20.41;91.90
63111;BME280;49201;53.426;10.300;2022-08-19T07:08:41;101219.09;;;20.40;91.56
63111;BME280;49201;53.426;10.300;2022-08-19T07:11:10;101220.03;;;20.36;90.93
63111;BME280;49201;53.426;10.300;2022-08-19T07:13:40;101226.91;;;20.38;90.86
63111;BME280;49201;53.426;10.300;2022-08-19T07:16:12;101229.44;;;20.41;91.21
63111;BME280;49201;53.426;10.300;2022-08-19T07:18:42;101232.13;;;20.38;90.48
63111;BME280;49201;53.426;10.300;2022-08-19T07:21:25;101232.06;;;20.41;90.26
63111;BME280;49201;53.426;10.300;2022-08-19T07:23:55;101232.94;;;20.40;90.78
63111;BME280;49201;53.426;10.300;2022-08-19T07:26:29;101246.84;;;20.39;90.60
63111;BME280;49201;53.426;10.300;2022-08-19T07:28:56;101254.69;;;20.36;90.75
63111;BME280;49201;53.426;10.300;2022-08-19T07:31:24;101259.91;;;20.35;91.23
63111;BME280;49201;53.426;10.300;2022-08-19T07:33:52;101263.38;;;20.34;90.82
63111;BME280;49201;53.426;10.300;2022-08-19T07:44:07;101265.03;;;20.41;90.35
63111;BME280;49201;53.426;10.300;2022-08-19T07:47:07;101272.78;;;20.45;90.37
63111;BME280;49201;53.426;10.300;2022-08-19T07:59:00;101285.78;;;20.44;90.16
63111;BME280;49201;53.426;10.300;2022-08-19T08:01:33;101292.78;;;20.40;90.01
63111;BME280;49201;53.426;10.300;2022-08-19T08:14:53;101306.53;;;20.51;89.70
63111;BME280;49201;53.426;10.300;2022-08-19T08:22:08;101311.78;;;20.47;90.82
63111;BME280;49201;53.426;10.300;2022-08-19T08:33:05;101312.56;;;20.55;90.85
63111;BME280;49201;53.426;10.300;2022-08-19T08:40:18;101321.31;;;20.48;90.92
63111;BME280;49201;53.426;10.300;2022-08-19T08:56:10;101325.78;;;20.40;90.56
63111;BME280;49201;53.426;10.300;2022-08-19T09:00:05;101330.09;;;20.39;90.77
63111;BME280;49201;53.426;10.300;2022-08-19T09:03:17;101332.72;;;20.38;90.64
63111;BME280;49201;53.426;10.300;2022-08-19T09:15:00;101329.31;;;20.33;89.51
63111;BME280;49201;53.426;10.300;2022-08-19T09:28:03;101322.97;;;20.55;88.26
63111;BME280;49201;53.426;10.300;2022-08-19T09:34:56;101310.75;;;20.58;87.26
63111;BME280;49201;53.426;10.300;2022-08-19T09:37:58;101320.25;;;20.64;87.62
63111;BME280;49201;53.426;10.300;2022-08-19T09:40:49;101313.25;;;20.66;87.60
63111;BME280;49201;53.426;10.300;2022-08-19T09:44:06;101318.44;;;20.69;87.73
63111;BME280;49201;53.426;10.300;2022-08-19T09:50:38;101321.81;;;20.74;87.46
63111;BME280;49201;53.426;10.300;2022-08-19T10:01:45;101320.72;;;20.91;87.79
63111;BME280;49201;53.426;10.300;2022-08-19T10:05:11;101317.28;;;20.91;87.57
63111;BME280;49201;53.426;10.300;2022-08-19T10:12:09;101327.44;;;21.06;87.45
63111;BME280;49201;53.426;10.300;2022-08-19T10:15:05;101328.19;;;21.14;87.98
63111;BME280;49201;53.426;10.300;2022-08-19T10:18:42;101323.78;;;21.19;87.60
63111;BME280;49201;53.426;10.300;2022-08-19T10:29:49;101331.59;;;21.17;87.10
63111;BME280;49201;53.426;10.300;2022-08-19T10:33:09;101332.44;;;21.18;86.92
63111;BME280;49201;53.426;10.300;2022-08-19T10:39:18;101331.72;;;21.10;87.50
63111;BME280;49201;53.426;10.300;2022-08-19T10:46:05;101334.31;;;21.11;87.30
63111;BME280;49201;53.426;10.300;2022-08-19T10:48:57;101324.81;;;21.07;87.85
63111;BME280;49201;53.426;10.300;2022-08-19T10:55:52;101330.91;;;21.06;88.00
63111;BME280;49201;53.426;10.300;2022-08-19T11:05:12;101333.34;;;21.15;87.77
63111;BME280;49201;53.426;10.300;2022-08-19T11:08:03;101327.22;;;21.18;87.01
63111;BME280;49201;53.426;10.300;2022-08-19T11:10:35;101334.06;;;21.26;86.65
63111;BME280;49201;53.426;10.300;2022-08-19T11:13:11;101325.25;;;21.32;86.23
63111;BME280;49201;53.426;10.300;2022-08-19T11:16:09;101325.22;;;21.35;86.44
63111;BME280;49201;53.426;10.300;2022-08-19T11:19:03;101328.63;;;21.38;86.11
63111;BME280;49201;53.426;10.300;2022-08-19T11:21:50;101332.06;;;21.42;86.03
63111;BME280;49201;53.426;10.300;2022-08-19T11:24:25;101319.84;;;21.44;86.17
63111;BME280;49201;53.426;10.300;2022-08-19T11:27:03;101314.53;;;21.50;86.07
63111;BME280;49201;53.426;10.300;2022-08-19T11:29:48;101317.06;;;21.54;85.24
63111;BME280;49201;53.426;10.300;2022-08-19T11:32:30;101315.38;;;21.52;85.72
63111;BME280;49201;53.426;10.300;2022-08-19T11:35:15;101313.56;;;21.55;85.33
63111;BME280;49201;53.426;10.300;2022-08-19T11:37:43;101304.63;;;21.68;85.50
63111;BME280;49201;53.426;10.300;2022-08-19T11:40:15;101298.44;;;21.75;85.39
63111;BME280;49201;53.426;10.300;2022-08-19T11:42:44;101297.47;;;21.81;84.75
63111;BME280;49201;53.426;10.300;2022-08-19T11:45:33;101311.22;;;21.90;84.91
63111;BME280;49201;53.426;10.300;2022-08-19T11:48:02;101304.41;;;21.82;84.75
63111;BME280;49201;53.426;10.300;2022-08-19T11:50:45;101306.06;;;21.86;84.35
63111;BME280;49201;53.426;10.300;2022-08-19T11:53:14;101303.56;;;21.81;84.72
63111;BME280;49201;53.426;10.300;2022-08-19T11:55:44;101312.38;;;21.74;85.06
63111;BME280;49201;53.426;10.300;2022-08-19T11:58:11;101311.56;;;21.72;85.08
63111;BME280;49201;53.426;10.300;2022-08-19T12:00:38;101318.50;;;21.72;85.05
63111;BME280;49201;53.426;10.300;2022-08-19T12:03:03;101314.16;;;21.72;85.36
63111;BME280;49201;53.426;10.300;2022-08-19T12:05:29;101304.66;;;21.70;85.56
63111;BME280;49201;53.426;10.300;2022-08-19T12:07:55;101310.63;;;21.76;85.06
63111;BME280;49201;53.426;10.300;2022-08-19T12:10:21;101314.00;;;21.80;85.04
63111;BME280;49201;53.426;10.300;2022-08-19T12:12:47;101309.56;;;21.85;84.77
63111;BME280;49201;53.426;10.300;2022-08-19T12:15:13;101305.88;;;21.95;84.33
63111;BME280;49201;53.426;10.300;2022-08-19T12:17:42;101310.13;;;22.02;83.95
63111;BME280;49201;53.426;10.300;2022-08-19T12:20:12;101311.63;;;22.13;83.88
63111;BME280;49201;53.426;10.300;2022-08-19T12:22:39;101297.63;;;22.17;83.83
63111;BME280;49201;53.426;10.300;2022-08-19T12:25:10;101298.47;;;22.18;83.32
63111;BME280;49201;53.426;10.300;2022-08-19T12:27:40;101301.84;;;22.23;83.18
63111;BME280;49201;53.426;10.300;2022-08-19T12:30:10;101305.28;;;22.25;83.40
63111;BME280;49201;53.426;10.300;2022-08-19T12:32:46;101303.25;;;22.39;83.07
63111;BME280;49201;53.426;10.300;2022-08-19T12:35:17;101304.81;;;22.48;82.43
63111;BME280;49201;53.426;10.300;2022-08-19T12:37:46;101309.88;;;22.55;82.23
63111;BME280;49201;53.426;10.300;2022-08-19T12:40:17;101309.63;;;22.66;81.78
63111;BME280;49201;53.426;10.300;2022-08-19T12:42:44;101307.75;;;22.72;81.57
63111;BME280;49201;53.426;10.300;2022-08-19T12:45:13;101301.91;;;22.98;80.25
63111;BME280;49201;53.426;10.300;2022-08-19T12:47:45;101299.28;;;22.99;79.96
63111;BME280;49201;53.426;10.300;2022-08-19T12:50:12;101300.47;;;22.85;80.18
63111;BME280;49201;53.426;10.300;2022-08-19T12:52:38;101294.25;;;22.92;80.43
63111;BME280;49201;53.426;10.300;2022-08-19T12:55:05;101306.28;;;22.97;79.97
63111;BME280;49201;53.426;10.300;2022-08-19T12:57:31;101301.25;;;22.88;80.21
63111;BME280;49201;53.426;10.300;2022-08-19T13:00:26;101293.59;;;22.82;79.94
63111;BME280;49201;53.426;10.300;2022-08-19T13:02:52;101297.81;;;22.88;79.96
63111;BME280;49201;53.426;10.300;2022-08-19T13:05:23;101301.03;;;22.97;80.11
63111;BME280;49201;53.426;10.300;2022-08-19T13:07:51;101297.94;;;23.18;78.82
63111;BME280;49201;53.426;10.300;2022-08-19T13:10:19;101289.25;;;23.51;77.39
63111;BME280;49201;53.426;10.300;2022-08-19T13:12:47;101283.09;;;24.16;75.60
63111;BME280;49201;53.426;10.300;2022-08-19T13:15:15;101286.53;;;24.75;73.74
63111;BME280;49201;53.426;10.300;2022-08-19T13:17:45;101276.22;;;25.22;71.67
63111;BME280;49201;53.426;10.300;2022-08-19T13:20:13;101279.59;;;25.52;69.25
63111;BME280;49201;53.426;10.300;2022-08-19T13:22:38;101273.47;;;25.76;68.68
63111;BME280;49201;53.426;10.300;2022-08-19T13:25:05;101264.31;;;25.87;68.94
63111;BME280;49201;53.426;10.300;2022-08-19T13:27:31;101266.00;;;25.88;67.23
63111;BME280;49201;53.426;10.300;2022-08-19T13:30:00;101270.81;;;25.53;68.65
63111;BME280;49201;53.426;10.300;2022-08-19T13:32:45;101273.16;;;25.10;68.69
63111;BME280;49201;53.426;10.300;2022-08-19T13:38:12;101260.72;;;25.16;70.99
63111;BME280;49201;53.426;10.300;2022-08-19T13:40:38;101260.97;;;25.09;70.18
63111;BME280;49201;53.426;10.300;2022-08-19T13:43:04;101264.81;;;25.23;69.75
63111;BME280;49201;53.426;10.300;2022-08-19T13:45:31;101272.91;;;25.17;69.43
63111;BME280;49201;53.426;10.300;2022-08-19T13:48:03;101268.84;;;25.09;70.88
63111;BME280;49201;53.426;10.300;2022-08-19T13:50:32;101272.81;;;24.94;70.30
63111;BME280;49201;53.426;10.300;2022-08-19T13:52:59;101262.63;;;24.85;70.62
63111;BME280;49201;53.426;10.300;2022-08-19T13:55:25;101257.91;;;24.69;70.93
63111;BME280;49201;53.426;10.300;2022-08-19T13:57:58;101266.50;;;24.74;71.87
63111;BME280;49201;53.426;10.300;2022-08-19T14:00:30;101264.63;;;24.77;71.21
63111;BME280;49201;53.426;10.300;2022-08-19T14:02:56;101265.50;;;24.78;70.63
63111;BME280;49201;53.426;10.300;2022-08-19T14:05:24;101267.09;;;24.82;71.16
63111;BME280;49201;53.426;10.300;2022-08-19T14:07:50;101267.28;;;24.76;71.34
63111;BME280;49201;53.426;10.300;2022-08-19T14:10:17;101271.97;;;24.66;71.55
63111;BME280;49201;53.426;10.300;2022-08-19T14:12:45;101266.81;;;24.63;71.49
63111;BME280;49201;53.426;10.300;2022-08-19T14:15:14;101264.88;;;24.70;71.43
63111;BME280;49201;53.426;10.300;2022-08-19T14:17:43;101256.63;;;24.82;71.27
63111;BME280;49201;53.426;10.300;2022-08-19T14:20:10;101257.34;;;24.87;71.24
63111;BME280;49201;53.426;10.300;2022-08-19T14:22:38;101261.81;;;25.09;69.86
63111;BME280;49201;53.426;10.300;2022-08-19T14:25:06;101247.66;;;25.15;70.25
63111;BME280;49201;53.426;10.300;2022-08-19T14:27:36;101247.97;;;25.32;68.92
63111;BME280;49201;53.426;10.300;2022-08-19T14:30:06;101247.28;;;24.99;68.94
63111;BME280;49201;53.426;10.300;2022-08-19T14:32:38;101255.41;;;24.92;71.16
63111;BME280;49201;53.426;10.300;2022-08-19T14:35:11;101256.38;;;24.89;69.75
63111;BME280;49201;53.426;10.300;2022-08-19T14:37:44;101249.22;;;24.94;69.36
63111;BME280;49201;53.426;10.300;2022-08-19T14:40:15;101249.25;;;24.93;69.97
63111;BME280;49201;53.426;10.300;2022-08-19T14:42:45;101251.97;;;24.90;69.65
63111;BME280;49201;53.426;10.300;2022-08-19T14:45:12;101255.38;;;24.93;69.65
63111;BME280;49201;53.426;10.300;2022-08-19T14:47:38;101247.06;;;24.81;69.80
63111;BME280;49201;53.426;10.300;2022-08-19T14:50:06;101255.88;;;24.78;69.68
63111;BME280;49201;53.426;10.300;2022-08-19T14:52:32;101254.38;;;24.70;69.71
63111;BME280;49201;53.426;10.300;2022-08-19T14:54:58;101258.84;;;24.68;70.55
63111;BME280;49201;53.426;10.300;2022-08-19T14:57:24;101258.88;;;24.66;70.52
63111;BME280;49201;53.426;10.300;2022-08-19T15:00:13;101258.66;;;24.72;70.87
63111;BME280;49201;53.426;10.300;2022-08-19T15:02:40;101260.28;;;24.76;70.54
63111;BME280;49201;53.426;10.300;2022-08-19T15:05:16;101262.13;;;24.74;70.42
63111;BME280;49201;53.426;10.300;2022-08-19T15:07:43;101264.06;;;24.68;70.05
63111;BME280;49201;53.426;10.300;2022-08-19T15:10:12;101266.69;;;24.68;70.29
63111;BME280;49201;53.426;10.300;2022-08-19T15:13:02;101265.19;;;24.59;70.81
63111;BME280;49201;53.426;10.300;2022-08-19T15:15:31;101271.75;;;24.45;70.85
63111;BME280;49201;53.426;10.300;2022-08-19T15:17:57;101275.75;;;24.27;71.18
63111;BME280;49201;53.426;10.300;2022-08-19T15:20:58;101282.66;;;24.30;71.48
63111;BME280;49201;53.426;10.300;2022-08-19T15:23:24;101280.19;;;24.25;71.96
63111;BME280;49201;53.426;10.300;2022-08-19T15:25:53;101275.91;;;24.23;72.14
63111;BME280;49201;53.426;10.300;2022-08-19T15:28:26;101279.47;;;24.20;71.88
63111;BME280;49201;53.426;10.300;2022-08-19T15:30:53;101276.84;;;24.20;72.23
63111;BME280;49201;53.426;10.300;2022-08-19T15:33:46;101281.81;;;24.29;72.02
63111;BME280;49201;53.426;10.300;2022-08-19T15:36:19;101272.81;;;24.38;71.31
63111;BME280;49201;53.426;10.300;2022-08-19T15:38:48;101277.59;;;24.53;70.80
63111;BME280;49201;53.426;10.300;2022-08-19T15:41:28;101275.72;;;24.58;70.97
63111;BME280;49201;53.426;10.300;2022-08-19T15:43:58;101276.97;;;24.74;70.70
63111;BME280;49201;53.426;10.300;2022-08-19T15:46:26;101274.44;;;24.71;70.26
63111;BME280;49201;53.426;10.300;2022-08-19T15:48:56;101276.66;;;24.55;70.16
63111;BME280;49201;53.426;10.300;2022-08-19T15:51:25;101276.50;;;24.32;70.36
63111;BME280;49201;53.426;10.300;2022-08-19T15:53:55;101274.59;;;24.37;70.58
63111;BME280;49201;53.426;10.300;2022-08-19T15:56:22;101276.50;;;24.32;70.18
63111;BME280;49201;53.426;10.300;2022-08-19T15:58:50;101277.13;;;24.40;70.69
63111;BME280;49201;53.426;10.300;2022-08-19T16:01:34;101269.97;;;24.45;70.24
63111;BME280;49201;53.426;10.300;2022-08-19T16:04:19;101275.22;;;24.45;70.53
63111;BME280;49201;53.426;10.300;2022-08-19T16:07:03;101266.59;;;24.42;70.84
63111;BME280;49201;53.426;10.300;2022-08-19T16:09:30;101268.25;;;24.44;71.00
63111;BME280;49201;53.426;10.300;2022-08-19T16:12:02;101262.91;;;24.49;70.37
63111;BME280;49201;53.426;10.300;2022-08-19T16:14:31;101269.41;;;24.65;69.96
63111;BME280;49201;53.426;10.300;2022-08-19T16:16:57;101263.88;;;24.74;70.85
63111;BME280;49201;53.426;10.300;2022-08-19T16:19:23;101269.31;;;24.68;70.37